sensor_id;sensor_type;location;lat;lon;timestamp;P1;P2;P0
76421;PMS5003;65254;52.354;13.614;2024-01-10T00:00:00;45;40;
76421;PMS5003;65254;52.354;13.614;2024-01-10T00:04:01;45;39;
76421;PMS5003;65254;52.354;13.614;2024-01-10T00:08:00;47;41;
76421;PMS5003;65254;52.354;13.614;2024-01-10T00:12:00;47;41;
76421;PMS5003;65254;52.354;13.614;2024-01-10T00:16:00;44;39;
76421;PMS5003;65254;52.354;13.614;2024-01-10T00:20:00;48;42;
76421;PMS5003;65254;52.354;13.614;2024-01-10T00:24:00;48;41;
76421;PMS5003;65254;52.354;13.614;2024-01-10T00:28:00;47;41;
76421;PMS5003;65254;52.354;13.614;2024-01-10T00:32:00;46;40;
76421;PMS5003;65254;52.354;13.614;2024-01-10T00:36:00;48;41;
76421;PMS5003;65254;52.354;13.614;2024-01-10T00:40:00;47;41;
76421;PMS5003;65254;52.354;13.614;2024-01-10T00:44:00;47;42;
76421;PMS5003;65254;52.354;13.614;2024-01-10T00:48:00;49;42;
76421;PMS5003;65254;52.354;13.614;2024-01-10T00:52:00;49;42;
76421;PMS5003;65254;52.354;13.614;2024-01-10T00:56:00;48;42;
76421;PMS5003;65254;52.354;13.614;2024-01-10T01:00:00;48;42;
76421;PMS5003;65254;52.354;13.614;2024-01-10T01:04:00;51;44;
76421;PMS5003;65254;52.354;13.614;2024-01-10T01:08:00;51;44;
76421;PMS5003;65254;52.354;13.614;2024-01-10T01:12:00;50;44;
76421;PMS5003;65254;52.354;13.614;2024-01-10T01:16:00;50;43;
76421;PMS5003;65254;52.354;13.614;2024-01-10T01:20:00;49;43;
76421;PMS5003;65254;52.354;13.614;2024-01-10T01:24:00;48;42;
76421;PMS5003;65254;52.354;13.614;2024-01-10T01:28:00;49;43;
76421;PMS5003;65254;52.354;13.614;2024-01-10T01:32:00;50;43;
76421;PMS5003;65254;52.354;13.614;2024-01-10T01:36:00;51;44;
76421;PMS5003;65254;52.354;13.614;2024-01-10T01:40:00;50;43;
76421;PMS5003;65254;52.354;13.614;2024-01-10T01:44:00;46;41;
76421;PMS5003;65254;52.354;13.614;2024-01-10T01:48:01;48;42;
76421;PMS5003;65254;52.354;13.614;2024-01-10T01:52:01;52;45;
76421;PMS5003;65254;52.354;13.614;2024-01-10T01:56:03;50;43;
76421;PMS5003;65254;52.354;13.614;2024-01-10T02:00:01;50;43;
76421;PMS5003;65254;52.354;13.614;2024-01-10T02:04:01;50;43;
76421;PMS5003;65254;52.354;13.614;2024-01-10T02:08:00;49;43;
76421;PMS5003;65254;52.354;13.614;2024-01-10T02:12:00;49;43;
76421;PMS5003;65254;52.354;13.614;2024-01-10T02:16:01;50;43;
76421;PMS5003;65254;52.354;13.614;2024-01-10T02:20:09;51;44;
76421;PMS5003;65254;52.354;13.614;2024-01-10T02:24:00;50;44;
76421;PMS5003;65254;52.354;13.614;2024-01-10T02:28:00;49;43;
76421;PMS5003;65254;52.354;13.614;2024-01-10T02:32:00;49;43;
76421;PMS5003;65254;52.354;13.614;2024-01-10T02:36:00;49;43;
76421;PMS5003;65254;52.354;13.614;2024-01-10T02:40:00;51;43;
76421;PMS5003;65254;52.354;13.614;2024-01-10T02:44:01;51;44;
76421;PMS5003;65254;52.354;13.614;2024-01-10T02:48:00;48;41;
76421;PMS5003;65254;52.354;13.614;2024-01-10T02:52:00;48;42;
76421;PMS5003;65254;52.354;13.614;2024-01-10T02:56:00;49;43;
76421;PMS5003;65254;52.354;13.614;2024-01-10T03:00:00;49;42;
76421;PMS5003;65254;52.354;13.614;2024-01-10T03:04:00;48;41;
76421;PMS5003;65254;52.354;13.614;2024-01-10T03:08:00;50;43;
76421;PMS5003;65254;52.354;13.614;2024-01-10T03:12:00;49;42;
76421;PMS5003;65254;52.354;13.614;2024-01-10T03:16:00;51;44;
76421;PMS5003;65254;52.354;13.614;2024-01-10T03:20:00;51;44;
76421;PMS5003;65254;52.354;13.614;2024-01-10T03:24:01;49;43;
76421;PMS5003;65254;52.354;13.614;2024-01-10T03:28:00;50;43;
76421;PMS5003;65254;52.354;13.614;2024-01-10T03:32:00;50;43;
76421;PMS5003;65254;52.354;13.614;2024-01-10T03:36:00;47;40;
76421;PMS5003;65254;52.354;13.614;2024-01-10T03:40:00;51;44;
76421;PMS5003;65254;52.354;13.614;2024-01-10T03:44:00;51;45;
76421;PMS5003;65254;52.354;13.614;2024-01-10T03:48:00;52;45;
76421;PMS5003;65254;52.354;13.614;2024-01-10T03:52:00;52;44;
76421;PMS5003;65254;52.354;13.614;2024-01-10T03:56:03;52;44;
76421;PMS5003;65254;52.354;13.614;2024-01-10T04:00:00;52;45;
76421;PMS5003;65254;52.354;13.614;2024-01-10T04:04:00;52;45;
76421;PMS5003;65254;52.354;13.614;2024-01-10T04:08:00;51;44;
76421;PMS5003;65254;52.354;13.614;2024-01-10T04:12:00;54;46;
76421;PMS5003;65254;52.354;13.614;2024-01-10T04:16:00;54;47;
76421;PMS5003;65254;52.354;13.614;2024-01-10T04:20:01;50;44;
76421;PMS5003;65254;52.354;13.614;2024-01-10T04:24:00;52;46;
76421;PMS5003;65254;52.354;13.614;2024-01-10T04:28:00;51;45;
76421;PMS5003;65254;52.354;13.614;2024-01-10T04:32:00;51;44;
76421;PMS5003;65254;52.354;13.614;2024-01-10T04:36:00;54;47;
76421;PMS5003;65254;52.354;13.614;2024-01-10T04:40:00;55;48;
76421;PMS5003;65254;52.354;13.614;2024-01-10T04:44:00;50;44;
76421;PMS5003;65254;52.354;13.614;2024-01-10T04:48:01;54;48;
76421;PMS5003;65254;52.354;13.614;2024-01-10T04:52:01;52;45;
76421;PMS5003;65254;52.354;13.614;2024-01-10T04:56:00;52;45;
76421;PMS5003;65254;52.354;13.614;2024-01-10T05:00:01;52;45;
76421;PMS5003;65254;52.354;13.614;2024-01-10T05:04:00;54;47;
76421;PMS5003;65254;52.354;13.614;2024-01-10T05:08:00;52;45;
76421;PMS5003;65254;52.354;13.614;2024-01-10T05:12:00;53;46;
76421;PMS5003;65254;52.354;13.614;2024-01-10T05:16:00;53;46;
76421;PMS5003;65254;52.354;13.614;2024-01-10T05:20:01;53;46;
76421;PMS5003;65254;52.354;13.614;2024-01-10T05:24:00;52;45;
76421;PMS5003;65254;52.354;13.614;2024-01-10T05:28:00;54;46;
76421;PMS5003;65254;52.354;13.614;2024-01-10T05:32:00;54;46;
76421;PMS5003;65254;52.354;13.614;2024-01-10T05:36:00;56;48;
76421;PMS5003;65254;52.354;13.614;2024-01-10T05:40:00;55;48;
76421;PMS5003;65254;52.354;13.614;2024-01-10T05:44:00;57;49;
76421;PMS5003;65254;52.354;13.614;2024-01-10T05:48:00;55;48;
76421;PMS5003;65254;52.354;13.614;2024-01-10T05:52:00;54;47;
76421;PMS5003;65254;52.354;13.614;2024-01-10T05:56:00;55;47;
76421;PMS5003;65254;52.354;13.614;2024-01-10T06:00:00;55;47;
76421;PMS5003;65254;52.354;13.614;2024-01-10T06:04:00;57;49;
76421;PMS5003;65254;52.354;13.614;2024-01-10T06:08:00;55;47;
76421;PMS5003;65254;52.354;13.614;2024-01-10T06:12:00;56;48;
76421;PMS5003;65254;52.354;13.614;2024-01-10T06:16:00;53;46;
76421;PMS5003;65254;52.354;13.614;2024-01-10T06:20:00;54;47;
76421;PMS5003;65254;52.354;13.614;2024-01-10T06:24:00;53;46;
76421;PMS5003;65254;52.354;13.614;2024-01-10T06:28:00;55;48;
76421;PMS5003;65254;52.354;13.614;2024-01-10T06:32:00;53;45;
76421;PMS5003;65254;52.354;13.614;2024-01-10T06:36:00;54;47;
76421;PMS5003;65254;52.354;13.614;2024-01-10T06:40:00;55;48;
76421;PMS5003;65254;52.354;13.614;2024-01-10T06:44:00;55;47;
76421;PMS5003;65254;52.354;13.614;2024-01-10T06:48:00;54;47;
76421;PMS5003;65254;52.354;13.614;2024-01-10T06:52:00;55;47;
76421;PMS5003;65254;52.354;13.614;2024-01-10T06:56:00;56;48;
76421;PMS5003;65254;52.354;13.614;2024-01-10T07:00:00;55;47;
76421;PMS5003;65254;52.354;13.614;2024-01-10T07:04:00;55;47;
76421;PMS5003;65254;52.354;13.614;2024-01-10T07:08:01;54;46;
76421;PMS5003;65254;52.354;13.614;2024-01-10T07:12:00;51;45;
76421;PMS5003;65254;52.354;13.614;2024-01-10T07:16:00;54;47;
76421;PMS5003;65254;52.354;13.614;2024-01-10T07:20:01;58;50;
76421;PMS5003;65254;52.354;13.614;2024-01-10T07:24:00;56;48;
76421;PMS5003;65254;52.354;13.614;2024-01-10T07:28:00;58;50;
76421;PMS5003;65254;52.354;13.614;2024-01-10T07:32:00;74;64;
76421;PMS5003;65254;52.354;13.614;2024-01-10T07:36:00;66;57;
76421;PMS5003;65254;52.354;13.614;2024-01-10T07:40:00;60;52;
76421;PMS5003;65254;52.354;13.614;2024-01-10T07:44:00;62;54;
76421;PMS5003;65254;52.354;13.614;2024-01-10T07:48:01;66;57;
76421;PMS5003;65254;52.354;13.614;2024-01-10T07:52:00;59;51;
76421;PMS5003;65254;52.354;13.614;2024-01-10T07:56:00;60;52;
76421;PMS5003;65254;52.354;13.614;2024-01-10T08:00:00;58;51;
76421;PMS5003;65254;52.354;13.614;2024-01-10T08:04:00;61;52;
76421;PMS5003;65254;52.354;13.614;2024-01-10T08:08:00;59;51;
76421;PMS5003;65254;52.354;13.614;2024-01-10T08:12:00;59;51;
76421;PMS5003;65254;52.354;13.614;2024-01-10T08:16:00;59;51;
76421;PMS5003;65254;52.354;13.614;2024-01-10T08:20:00;58;50;
76421;PMS5003;65254;52.354;13.614;2024-01-10T08:24:02;64;55;
76421;PMS5003;65254;52.354;13.614;2024-01-10T08:28:00;58;50;
76421;PMS5003;65254;52.354;13.614;2024-01-10T08:32:00;57;49;
76421;PMS5003;65254;52.354;13.614;2024-01-10T08:36:01;58;50;
76421;PMS5003;65254;52.354;13.614;2024-01-10T08:40:01;58;50;
76421;PMS5003;65254;52.354;13.614;2024-01-10T08:44:00;59;51;
76421;PMS5003;65254;52.354;13.614;2024-01-10T08:48:00;59;51;
76421;PMS5003;65254;52.354;13.614;2024-01-10T08:52:00;57;49;
76421;PMS5003;65254;52.354;13.614;2024-01-10T08:56:00;58;50;
76421;PMS5003;65254;52.354;13.614;2024-01-10T09:00:00;58;51;
76421;PMS5003;65254;52.354;13.614;2024-01-10T09:04:01;60;51;
76421;PMS5003;65254;52.354;13.614;2024-01-10T09:08:00;58;50;
76421;PMS5003;65254;52.354;13.614;2024-01-10T09:12:00;55;47;
76421;PMS5003;65254;52.354;13.614;2024-01-10T09:16:00;55;48;
76421;PMS5003;65254;52.354;13.614;2024-01-10T09:20:00;56;49;
76421;PMS5003;65254;52.354;13.614;2024-01-10T09:24:11;53;46;
76421;PMS5003;65254;52.354;13.614;2024-01-10T09:28:00;54;47;
76421;PMS5003;65254;52.354;13.614;2024-01-10T09:32:00;53;47;
76421;PMS5003;65254;52.354;13.614;2024-01-10T09:36:02;56;49;
76421;PMS5003;65254;52.354;13.614;2024-01-10T09:40:00;55;48;
76421;PMS5003;65254;52.354;13.614;2024-01-10T09:44:00;55;47;
76421;PMS5003;65254;52.354;13.614;2024-01-10T09:48:01;53;45;
76421;PMS5003;65254;52.354;13.614;2024-01-10T09:52:04;51;44;
76421;PMS5003;65254;52.354;13.614;2024-01-10T09:56:03;52;45;
76421;PMS5003;65254;52.354;13.614;2024-01-10T10:00:01;52;45;
76421;PMS5003;65254;52.354;13.614;2024-01-10T10:04:01;51;45;
76421;PMS5003;65254;52.354;13.614;2024-01-10T10:08:01;45;40;
76421;PMS5003;65254;52.354;13.614;2024-01-10T10:12:00;46;40;
76421;PMS5003;65254;52.354;13.614;2024-01-10T10:16:01;50;43;
76421;PMS5003;65254;52.354;13.614;2024-01-10T10:20:03;49;43;
76421;PMS5003;65254;52.354;13.614;2024-01-10T10:24:01;48;42;
76421;PMS5003;65254;52.354;13.614;2024-01-10T10:28:02;49;43;
76421;PMS5003;65254;52.354;13.614;2024-01-10T10:32:00;48;42;
76421;PMS5003;65254;52.354;13.614;2024-01-10T10:36:00;45;40;
76421;PMS5003;65254;52.354;13.614;2024-01-10T10:40:00;46;40;
76421;PMS5003;65254;52.354;13.614;2024-01-10T10:44:02;44;39;
76421;PMS5003;65254;52.354;13.614;2024-01-10T10:48:01;43;38;
76421;PMS5003;65254;52.354;13.614;2024-01-10T10:52:01;43;38;
76421;PMS5003;65254;52.354;13.614;2024-01-10T10:56:02;47;41;
76421;PMS5003;65254;52.354;13.614;2024-01-10T11:00:01;48;42;
76421;PMS5003;65254;52.354;13.614;2024-01-10T11:04:01;46;40;
76421;PMS5003;65254;52.354;13.614;2024-01-10T11:08:03;45;40;
76421;PMS5003;65254;52.354;13.614;2024-01-10T11:12:12;46;40;
76421;PMS5003;65254;52.354;13.614;2024-01-10T11:20:11;46;41;
76421;PMS5003;65254;52.354;13.614;2024-01-10T11:24:01;44;38;
76421;PMS5003;65254;52.354;13.614;2024-01-10T11:28:05;47;42;
76421;PMS5003;65254;52.354;13.614;2024-01-10T11:32:04;49;43;
76421;PMS5003;65254;52.354;13.614;2024-01-10T11:36:06;50;43;
76421;PMS5003;65254;52.354;13.614;2024-01-10T11:40:00;49;43;
76421;PMS5003;65254;52.354;13.614;2024-01-10T11:48:00;50;44;
76421;PMS5003;65254;52.354;13.614;2024-01-10T11:52:00;49;43;
76421;PMS5003;65254;52.354;13.614;2024-01-10T11:56:08;48;42;
76421;PMS5003;65254;52.354;13.614;2024-01-10T12:00:00;47;42;
76421;PMS5003;65254;52.354;13.614;2024-01-10T12:04:11;48;42;
76421;PMS5003;65254;52.354;13.614;2024-01-10T12:08:04;47;41;
76421;PMS5003;65254;52.354;13.614;2024-01-10T12:12:00;45;39;
76421;PMS5003;65254;52.354;13.614;2024-01-10T12:16:00;45;40;
76421;PMS5003;65254;52.354;13.614;2024-01-10T12:20:00;43;37;
76421;PMS5003;65254;52.354;13.614;2024-01-10T12:24:03;42;37;
76421;PMS5003;65254;52.354;13.614;2024-01-10T12:28:01;42;37;
76421;PMS5003;65254;52.354;13.614;2024-01-10T12:32:00;44;38;
76421;PMS5003;65254;52.354;13.614;2024-01-10T12:36:02;41;36;
76421;PMS5003;65254;52.354;13.614;2024-01-10T12:40:01;40;35;
76421;PMS5003;65254;52.354;13.614;2024-01-10T12:44:01;40;35;
76421;PMS5003;65254;52.354;13.614;2024-01-10T12:48:00;38;34;
76421;PMS5003;65254;52.354;13.614;2024-01-10T12:52:00;40;35;
76421;PMS5003;65254;52.354;13.614;2024-01-10T12:56:00;40;35;
76421;PMS5003;65254;52.354;13.614;2024-01-10T13:00:00;38;33;
76421;PMS5003;65254;52.354;13.614;2024-01-10T13:04:00;37;33;
76421;PMS5003;65254;52.354;13.614;2024-01-10T13:08:00;39;34;
76421;PMS5003;65254;52.354;13.614;2024-01-10T13:12:00;37;33;
76421;PMS5003;65254;52.354;13.614;2024-01-10T13:16:00;38;33;
76421;PMS5003;65254;52.354;13.614;2024-01-10T13:20:00;36;32;
76421;PMS5003;65254;52.354;13.614;2024-01-10T13:24:00;36;31;
76421;PMS5003;65254;52.354;13.614;2024-01-10T13:28:00;40;35;
76421;PMS5003;65254;52.354;13.614;2024-01-10T13:32:00;38;34;
76421;PMS5003;65254;52.354;13.614;2024-01-10T13:36:00;40;35;
76421;PMS5003;65254;52.354;13.614;2024-01-10T13:40:00;39;35;
76421;PMS5003;65254;52.354;13.614;2024-01-10T13:44:00;40;35;
76421;PMS5003;65254;52.354;13.614;2024-01-10T13:48:00;40;35;
76421;PMS5003;65254;52.354;13.614;2024-01-10T13:52:00;40;35;
76421;PMS5003;65254;52.354;13.614;2024-01-10T13:56:00;42;37;
76421;PMS5003;65254;52.354;13.614;2024-01-10T14:00:01;40;36;
76421;PMS5003;65254;52.354;13.614;2024-01-10T14:04:00;40;35;
76421;PMS5003;65254;52.354;13.614;2024-01-10T14:08:00;39;34;
76421;PMS5003;65254;52.354;13.614;2024-01-10T14:12:00;41;36;
76421;PMS5003;65254;52.354;13.614;2024-01-10T14:16:00;41;36;
76421;PMS5003;65254;52.354;13.614;2024-01-10T14:20:00;40;35;
76421;PMS5003;65254;52.354;13.614;2024-01-10T14:24:00;39;34;
76421;PMS5003;65254;52.354;13.614;2024-01-10T14:28:00;40;35;
76421;PMS5003;65254;52.354;13.614;2024-01-10T14:32:11;39;35;
76421;PMS5003;65254;52.354;13.614;2024-01-10T14:36:01;41;36;
76421;PMS5003;65254;52.354;13.614;2024-01-10T14:40:00;42;37;
76421;PMS5003;65254;52.354;13.614;2024-01-10T14:44:01;42;37;
76421;PMS5003;65254;52.354;13.614;2024-01-10T14:48:01;42;37;
76421;PMS5003;65254;52.354;13.614;2024-01-10T14:52:00;41;36;
76421;PMS5003;65254;52.354;13.614;2024-01-10T14:56:01;42;37;
76421;PMS5003;65254;52.354;13.614;2024-01-10T15:00:01;42;37;
76421;PMS5003;65254;52.354;13.614;2024-01-10T15:04:00;43;38;
76421;PMS5003;65254;52.354;13.614;2024-01-10T15:08:00;42;37;
76421;PMS5003;65254;52.354;13.614;2024-01-10T15:12:00;41;36;
76421;PMS5003;65254;52.354;13.614;2024-01-10T15:16:00;44;38;
76421;PMS5003;65254;52.354;13.614;2024-01-10T15:20:00;42;37;
76421;PMS5003;65254;52.354;13.614;2024-01-10T15:24:00;44;38;
76421;PMS5003;65254;52.354;13.614;2024-01-10T15:28:01;41;36;
76421;PMS5003;65254;52.354;13.614;2024-01-10T15:32:00;42;36;
76421;PMS5003;65254;52.354;13.614;2024-01-10T15:36:00;42;37;
76421;PMS5003;65254;52.354;13.614;2024-01-10T15:40:00;42;37;
76421;PMS5003;65254;52.354;13.614;2024-01-10T15:44:00;45;39;
76421;PMS5003;65254;52.354;13.614;2024-01-10T15:48:01;47;40;
76421;PMS5003;65254;52.354;13.614;2024-01-10T15:52:00;43;38;
76421;PMS5003;65254;52.354;13.614;2024-01-10T15:56:00;43;38;
76421;PMS5003;65254;52.354;13.614;2024-01-10T16:00:00;45;39;
76421;PMS5003;65254;52.354;13.614;2024-01-10T16:04:00;47;41;
76421;PMS5003;65254;52.354;13.614;2024-01-10T16:08:00;48;42;
76421;PMS5003;65254;52.354;13.614;2024-01-10T16:12:00;49;43;
76421;PMS5003;65254;52.354;13.614;2024-01-10T16:16:01;50;44;
76421;PMS5003;65254;52.354;13.614;2024-01-10T16:20:00;52;46;
76421;PMS5003;65254;52.354;13.614;2024-01-10T16:24:00;52;45;
76421;PMS5003;65254;52.354;13.614;2024-01-10T16:28:00;53;46;
76421;PMS5003;65254;52.354;13.614;2024-01-10T16:32:00;53;46;
76421;PMS5003;65254;52.354;13.614;2024-01-10T16:36:00;51;45;
76421;PMS5003;65254;52.354;13.614;2024-01-10T16:40:00;51;45;
76421;PMS5003;65254;52.354;13.614;2024-01-10T16:44:00;53;47;
76421;PMS5003;65254;52.354;13.614;2024-01-10T16:48:01;54;47;
76421;PMS5003;65254;52.354;13.614;2024-01-10T16:52:00;54;47;
76421;PMS5003;65254;52.354;13.614;2024-01-10T16:56:00;55;48;
76421;PMS5003;65254;52.354;13.614;2024-01-10T17:00:00;56;49;
76421;PMS5003;65254;52.354;13.614;2024-01-10T17:04:00;56;48;
76421;PMS5003;65254;52.354;13.614;2024-01-10T17:08:00;55;48;
76421;PMS5003;65254;52.354;13.614;2024-01-10T17:12:00;56;49;
76421;PMS5003;65254;52.354;13.614;2024-01-10T17:16:00;57;50;
76421;PMS5003;65254;52.354;13.614;2024-01-10T17:20:00;54;47;
76421;PMS5003;65254;52.354;13.614;2024-01-10T17:24:00;54;48;
76421;PMS5003;65254;52.354;13.614;2024-01-10T17:28:00;55;48;
76421;PMS5003;65254;52.354;13.614;2024-01-10T17:32:00;55;48;
76421;PMS5003;65254;52.354;13.614;2024-01-10T17:36:00;57;50;
76421;PMS5003;65254;52.354;13.614;2024-01-10T17:40:00;53;47;
76421;PMS5003;65254;52.354;13.614;2024-01-10T17:44:00;55;48;
76421;PMS5003;65254;52.354;13.614;2024-01-10T17:48:01;57;50;
76421;PMS5003;65254;52.354;13.614;2024-01-10T17:52:00;62;53;
76421;PMS5003;65254;52.354;13.614;2024-01-10T17:56:00;61;53;
76421;PMS5003;65254;52.354;13.614;2024-01-10T18:00:00;63;54;
76421;PMS5003;65254;52.354;13.614;2024-01-10T18:04:11;61;53;
76421;PMS5003;65254;52.354;13.614;2024-01-10T18:08:00;62;54;
76421;PMS5003;65254;52.354;13.614;2024-01-10T18:12:00;60;52;
76421;PMS5003;65254;52.354;13.614;2024-01-10T18:16:00;58;51;
76421;PMS5003;65254;52.354;13.614;2024-01-10T18:20:01;62;55;
76421;PMS5003;65254;52.354;13.614;2024-01-10T18:24:00;57;50;
76421;PMS5003;65254;52.354;13.614;2024-01-10T18:28:00;56;49;
76421;PMS5003;65254;52.354;13.614;2024-01-10T18:32:00;57;49;
76421;PMS5003;65254;52.354;13.614;2024-01-10T18:36:00;54;47;
76421;PMS5003;65254;52.354;13.614;2024-01-10T18:40:00;59;51;
76421;PMS5003;65254;52.354;13.614;2024-01-10T18:44:00;58;51;
76421;PMS5003;65254;52.354;13.614;2024-01-10T18:48:01;56;48;
76421;PMS5003;65254;52.354;13.614;2024-01-10T18:52:00;57;50;
76421;PMS5003;65254;52.354;13.614;2024-01-10T18:56:00;56;50;
76421;PMS5003;65254;52.354;13.614;2024-01-10T19:00:00;54;47;
76421;PMS5003;65254;52.354;13.614;2024-01-10T19:04:00;57;49;
76421;PMS5003;65254;52.354;13.614;2024-01-10T19:08:00;59;51;
76421;PMS5003;65254;52.354;13.614;2024-01-10T19:12:00;58;51;
76421;PMS5003;65254;52.354;13.614;2024-01-10T19:16:00;67;57;
76421;PMS5003;65254;52.354;13.614;2024-01-10T19:20:00;66;57;
76421;PMS5003;65254;52.354;13.614;2024-01-10T19:24:01;68;60;
76421;PMS5003;65254;52.354;13.614;2024-01-10T19:28:00;65;57;
76421;PMS5003;65254;52.354;13.614;2024-01-10T19:32:00;65;56;
76421;PMS5003;65254;52.354;13.614;2024-01-10T19:36:00;62;54;
76421;PMS5003;65254;52.354;13.614;2024-01-10T19:40:00;58;51;
76421;PMS5003;65254;52.354;13.614;2024-01-10T19:44:00;60;53;
76421;PMS5003;65254;52.354;13.614;2024-01-10T19:48:00;65;56;
76421;PMS5003;65254;52.354;13.614;2024-01-10T19:52:00;64;56;
76421;PMS5003;65254;52.354;13.614;2024-01-10T19:56:00;66;58;
76421;PMS5003;65254;52.354;13.614;2024-01-10T20:00:00;63;55;
76421;PMS5003;65254;52.354;13.614;2024-01-10T20:04:00;67;59;
76421;PMS5003;65254;52.354;13.614;2024-01-10T20:08:00;72;62;
76421;PMS5003;65254;52.354;13.614;2024-01-10T20:12:00;70;60;
76421;PMS5003;65254;52.354;13.614;2024-01-10T20:16:00;72;63;
76421;PMS5003;65254;52.354;13.614;2024-01-10T20:20:00;79;69;
76421;PMS5003;65254;52.354;13.614;2024-01-10T20:24:00;78;68;
76421;PMS5003;65254;52.354;13.614;2024-01-10T20:28:00;75;65;
76421;PMS5003;65254;52.354;13.614;2024-01-10T20:32:00;76;66;
76421;PMS5003;65254;52.354;13.614;2024-01-10T20:36:01;75;65;
76421;PMS5003;65254;52.354;13.614;2024-01-10T20:40:00;78;68;
76421;PMS5003;65254;52.354;13.614;2024-01-10T20:44:00;77;66;
76421;PMS5003;65254;52.354;13.614;2024-01-10T20:48:00;72;63;
76421;PMS5003;65254;52.354;13.614;2024-01-10T20:52:00;72;62;
76421;PMS5003;65254;52.354;13.614;2024-01-10T20:56:00;68;60;
76421;PMS5003;65254;52.354;13.614;2024-01-10T21:00:00;70;60;
76421;PMS5003;65254;52.354;13.614;2024-01-10T21:04:00;69;60;
76421;PMS5003;65254;52.354;13.614;2024-01-10T21:08:00;72;63;
76421;PMS5003;65254;52.354;13.614;2024-01-10T21:12:00;70;61;
76421;PMS5003;65254;52.354;13.614;2024-01-10T21:16:00;70;60;
76421;PMS5003;65254;52.354;13.614;2024-01-10T21:20:00;71;60;
76421;PMS5003;65254;52.354;13.614;2024-01-10T21:24:00;70;61;
76421;PMS5003;65254;52.354;13.614;2024-01-10T21:28:01;67;58;
76421;PMS5003;65254;52.354;13.614;2024-01-10T21:32:00;69;60;
76421;PMS5003;65254;52.354;13.614;2024-01-10T21:36:00;67;58;
76421;PMS5003;65254;52.354;13.614;2024-01-10T21:40:00;68;59;
76421;PMS5003;65254;52.354;13.614;2024-01-10T21:44:00;64;56;
76421;PMS5003;65254;52.354;13.614;2024-01-10T21:48:00;67;58;
76421;PMS5003;65254;52.354;13.614;2024-01-10T21:52:00;71;61;
76421;PMS5003;65254;52.354;13.614;2024-01-10T21:56:00;74;65;
76421;PMS5003;65254;52.354;13.614;2024-01-10T22:00:00;81;70;
76421;PMS5003;65254;52.354;13.614;2024-01-10T22:04:00;75;65;
76421;PMS5003;65254;52.354;13.614;2024-01-10T22:08:00;68;59;
76421;PMS5003;65254;52.354;13.614;2024-01-10T22:12:00;67;58;
76421;PMS5003;65254;52.354;13.614;2024-01-10T22:16:00;66;57;
76421;PMS5003;65254;52.354;13.614;2024-01-10T22:20:00;64;55;
76421;PMS5003;65254;52.354;13.614;2024-01-10T22:24:00;59;51;
76421;PMS5003;65254;52.354;13.614;2024-01-10T22:28:00;58;51;
76421;PMS5003;65254;52.354;13.614;2024-01-10T22:32:00;58;51;
76421;PMS5003;65254;52.354;13.614;2024-01-10T22:36:00;57;49;
76421;PMS5003;65254;52.354;13.614;2024-01-10T22:40:00;56;48;
76421;PMS5003;65254;52.354;13.614;2024-01-10T22:44:00;55;48;
76421;PMS5003;65254;52.354;13.614;2024-01-10T22:48:00;59;51;
76421;PMS5003;65254;52.354;13.614;2024-01-10T22:52:00;56;49;
76421;PMS5003;65254;52.354;13.614;2024-01-10T22:56:00;55;48;
76421;PMS5003;65254;52.354;13.614;2024-01-10T23:00:01;56;50;
76421;PMS5003;65254;52.354;13.614;2024-01-10T23:04:00;59;52;
76421;PMS5003;65254;52.354;13.614;2024-01-10T23:08:00;57;50;
76421;PMS5003;65254;52.354;13.614;2024-01-10T23:12:00;58;51;
76421;PMS5003;65254;52.354;13.614;2024-01-10T23:16:01;61;53;
76421;PMS5003;65254;52.354;13.614;2024-01-10T23:20:01;60;52;
76421;PMS5003;65254;52.354;13.614;2024-01-10T23:24:00;60;52;
76421;PMS5003;65254;52.354;13.614;2024-01-10T23:28:00;60;52;
76421;PMS5003;65254;52.354;13.614;2024-01-10T23:32:00;61;53;
76421;PMS5003;65254;52.354;13.614;2024-01-10T23:36:00;54;47;
76421;PMS5003;65254;52.354;13.614;2024-01-10T23:40:00;52;45;
76421;PMS5003;65254;52.354;13.614;2024-01-10T23:44:00;53;46;
76421;PMS5003;65254;52.354;13.614;2024-01-10T23:48:01;55;48;
76421;PMS5003;65254;52.354;13.614;2024-01-10T23:52:00;52;45;
76421;PMS5003;65254;52.354;13.614;2024-01-10T23:56:00;51;45;
